sensor_id;sensor_type;location;lat;lon;timestamp;pressure;altitude;pressure_sealevel;temperature;humidity
24762;BME280;12865;51.934;10.330;2024-01-11T00:02:01;100604.91;;;-7.94;100.00
24762;BME280;12865;51.934;10.330;2024-01-11T00:04:47;100603.19;;;-7.94;100.00
24762;BME280;12865;51.934;10.330;2024-01-11T00:07:33;100604.97;;;-7.85;100.00
24762;BME280;12865;51.934;10.330;2024-01-11T00:10:19;100613.59;;;-7.77;100.00
24762;BME280;12865;51.934;10.330;2024-01-11T00:13:06;100610.19;;;-7.71;100.00
24762;BME280;12865;51.934;10.330;2024-01-11T00:15:52;100638.69;;;-7.71;100.00
24762;BME280;12865;51.934;10.330;2024-01-11T00:18:37;100636.78;;;-7.97;100.00
24762;BME280;12865;51.934;10.330;2024-01-11T00:21:23;100634.94;;;-8.17;100.00
24762;BME280;12865;51.934;10.330;2024-01-11T00:24:08;100633.09;;;-8.34;100.00
24762;BME280;12865;51.934;10.330;2024-01-11T00:26:54;100640.94;;;-8.20;100.00
24762;BME280;12865;51.934;10.330;2024-01-11T00:29:40;100645.22;;;-8.31;100.00
24762;BME280;12865;51.934;10.330;2024-01-11T00:32:25;100641.69;;;-8.39;100.00
24762;BME280;12865;51.934;10.330;2024-01-11T00:35:11;100653.69;;;-8.50;100.00
24762;BME280;12865;51.934;10.330;2024-01-11T00:37:57;100662.31;;;-8.50;100.00
24762;BME280;12865;51.934;10.330;2024-01-11T00:40:42;100674.31;;;-8.56;100.00
24762;BME280;12865;51.934;10.330;2024-01-11T00:43:28;100677.69;;;-8.60;100.00
24762;BME280;12865;51.934;10.330;2024-01-11T00:46:14;100674.16;;;-8.68;100.00
24762;BME280;12865;51.934;10.330;2024-01-11T00:48:59;100674.97;;;-8.77;100.00
24762;BME280;12865;51.934;10.330;2024-01-11T00:51:45;100668.88;;;-8.82;100.00
24762;BME280;12865;51.934;10.330;2024-01-11T00:54:30;100665.41;;;-8.86;100.00
24762;BME280;12865;51.934;10.330;2024-01-11T00:57:16;100667.03;;;-8.94;100.00
24762;BME280;12865;51.934;10.330;2024-01-11T01:00:02;100663.63;;;-8.91;100.00
24762;BME280;12865;51.934;10.330;2024-01-11T01:02:48;100653.34;;;-8.85;100.00
24762;BME280;12865;51.934;10.330;2024-01-11T01:05:33;100643.16;;;-8.71;100.00
24762;BME280;12865;51.934;10.330;2024-01-11T01:08:19;100650.91;;;-8.68;100.00
24762;BME280;12865;51.934;10.330;2024-01-11T01:11:05;100642.44;;;-8.52;100.00
24762;BME280;12865;51.934;10.330;2024-01-11T01:13:50;100643.44;;;-8.37;100.00
24762;BME280;12865;51.934;10.330;2024-01-11T01:16:36;100636.59;;;-8.27;100.00
24762;BME280;12865;51.934;10.330;2024-01-11T01:19:22;100639.25;;;-8.16;100.00
24762;BME280;12865;51.934;10.330;2024-01-11T01:22:07;100628.88;;;-8.19;100.00
24762;BME280;12865;51.934;10.330;2024-01-11T01:24:53;100629.78;;;-8.16;100.00
24762;BME280;12865;51.934;10.330;2024-01-11T01:27:39;100634.06;;;-8.21;100.00
24762;BME280;12865;51.934;10.330;2024-01-11T01:30:24;100639.13;;;-8.36;100.00
24762;BME280;12865;51.934;10.330;2024-01-11T01:33:10;100638.22;;;-8.44;100.00
24762;BME280;12865;51.934;10.330;2024-01-11T01:35:56;100632.16;;;-8.45;100.00
24762;BME280;12865;51.934;10.330;2024-01-11T01:38:41;100634.78;;;-8.42;100.00
24762;BME280;12865;51.934;10.330;2024-01-11T01:41:27;100634.78;;;-8.43;100.00
24762;BME280;12865;51.934;10.330;2024-01-11T01:44:12;100639.06;;;-8.45;100.00
24762;BME280;12865;51.934;10.330;2024-01-11T01:46:58;100638.22;;;-8.40;100.00
24762;BME280;12865;51.934;10.330;2024-01-11T01:49:44;100635.66;;;-8.38;100.00
24762;BME280;12865;51.934;10.330;2024-01-11T01:52:30;100639.13;;;-8.38;100.00
24762;BME280;12865;51.934;10.330;2024-01-11T01:55:17;100637.41;;;-8.37;100.00
24762;BME280;12865;51.934;10.330;2024-01-11T01:58:05;100624.50;;;-8.32;100.00
24762;BME280;12865;51.934;10.330;2024-01-11T02:00:51;100622.81;;;-8.20;100.00
24762;BME280;12865;51.934;10.330;2024-01-11T02:03:37;100607.31;;;-8.20;100.00
24762;BME280;12865;51.934;10.330;2024-01-11T02:06:25;100612.50;;;-8.21;100.00
24762;BME280;12865;51.934;10.330;2024-01-11T02:09:11;100603.88;;;-8.22;100.00
24762;BME280;12865;51.934;10.330;2024-01-11T02:11:59;100598.72;;;-8.20;100.00
24762;BME280;12865;51.934;10.330;2024-01-11T02:14:46;100600.47;;;-8.12;100.00
24762;BME280;12865;51.934;10.330;2024-01-11T02:17:31;100618.53;;;-8.19;100.00
24762;BME280;12865;51.934;10.330;2024-01-11T02:20:17;100622.00;;;-8.16;100.00
24762;BME280;12865;51.934;10.330;2024-01-11T02:23:06;100629.72;;;-8.23;100.00
24762;BME280;12865;51.934;10.330;2024-01-11T02:25:53;100629.69;;;-8.25;100.00
24762;BME280;12865;51.934;10.330;2024-01-11T02:28:43;100633.13;;;-8.35;100.00
24762;BME280;12865;51.934;10.330;2024-01-11T02:31:29;100625.34;;;-8.37;100.00
24762;BME280;12865;51.934;10.330;2024-01-11T02:34:14;100637.38;;;-8.42;100.00
24762;BME280;12865;51.934;10.330;2024-01-11T02:37:00;100651.25;;;-8.30;100.00
24762;BME280;12865;51.934;10.330;2024-01-11T02:39:46;100660.78;;;-8.19;100.00
24762;BME280;12865;51.934;10.330;2024-01-11T02:42:32;100671.06;;;-8.26;100.00
24762;BME280;12865;51.934;10.330;2024-01-11T02:45:17;100659.91;;;-8.21;100.00
24762;BME280;12865;51.934;10.330;2024-01-11T02:48:04;100658.06;;;-8.39;100.00
24762;BME280;12865;51.934;10.330;2024-01-11T02:50:50;100650.19;;;-8.55;100.00
24762;BME280;12865;51.934;10.330;2024-01-11T02:53:36;100650.06;;;-8.67;100.00
24762;BME280;12865;51.934;10.330;2024-01-11T02:56:21;100650.97;;;-8.64;100.00
24762;BME280;12865;51.934;10.330;2024-01-11T02:59:07;100653.44;;;-8.76;100.00
24762;BME280;12865;51.934;10.330;2024-01-11T03:01:53;100648.25;;;-8.78;100.00
24762;BME280;12865;51.934;10.330;2024-01-11T03:04:38;100627.53;;;-8.84;100.00
24762;BME280;12865;51.934;10.330;2024-01-11T03:07:24;100623.19;;;-8.86;100.00
24762;BME280;12865;51.934;10.330;2024-01-11T03:10:09;100616.31;;;-8.83;100.00
24762;BME280;12865;51.934;10.330;2024-01-11T03:12:57;100616.38;;;-8.80;100.00
24762;BME280;12865;51.934;10.330;2024-01-11T03:15:43;100616.31;;;-8.86;100.00
24762;BME280;12865;51.934;10.330;2024-01-11T03:18:29;100617.34;;;-8.65;100.00
24762;BME280;12865;51.934;10.330;2024-01-11T03:21:16;100619.16;;;-8.54;100.00
24762;BME280;12865;51.934;10.330;2024-01-11T03:24:02;100632.09;;;-8.54;100.00
24762;BME280;12865;51.934;10.330;2024-01-11T03:26:48;100622.56;;;-8.59;100.00
24762;BME280;12865;51.934;10.330;2024-01-11T03:29:34;100620.78;;;-8.69;100.00
24762;BME280;12865;51.934;10.330;2024-01-11T03:32:19;100614.66;;;-8.79;100.00
24762;BME280;12865;51.934;10.330;2024-01-11T03:35:07;100617.97;;;-8.89;100.00
24762;BME280;12865;51.934;10.330;2024-01-11T03:37:53;100613.66;;;-8.93;100.00
24762;BME280;12865;51.934;10.330;2024-01-11T03:40:39;100620.59;;;-8.88;100.00
24762;BME280;12865;51.934;10.330;2024-01-11T03:43:24;100633.63;;;-8.77;100.00
24762;BME280;12865;51.934;10.330;2024-01-11T03:46:10;100631.88;;;-8.78;100.00
24762;BME280;12865;51.934;10.330;2024-01-11T03:48:56;100631.84;;;-8.81;100.00
24762;BME280;12865;51.934;10.330;2024-01-11T03:51:42;100629.25;;;-8.83;100.00
24762;BME280;12865;51.934;10.330;2024-01-11T03:54:28;100631.78;;;-8.89;100.00
24762;BME280;12865;51.934;10.330;2024-01-11T03:57:13;100623.00;;;-9.03;100.00
24762;BME280;12865;51.934;10.330;2024-01-11T03:59:59;100628.19;;;-9.03;100.00
24762;BME280;12865;51.934;10.330;2024-01-11T04:02:45;100626.41;;;-9.08;100.00
24762;BME280;12865;51.934;10.330;2024-01-11T04:05:30;100636.75;;;-9.08;100.00
24762;BME280;12865;51.934;10.330;2024-01-11T04:08:16;100641.03;;;-9.12;100.00
24762;BME280;12865;51.934;10.330;2024-01-11T04:11:03;100643.59;;;-9.10;100.00
24762;BME280;12865;51.934;10.330;2024-01-11T04:13:49;100663.44;;;-9.08;100.00
24762;BME280;12865;51.934;10.330;2024-01-11T04:16:40;100673.06;;;-8.93;100.00
24762;BME280;12865;51.934;10.330;2024-01-11T04:19:26;100665.28;;;-8.95;100.00
24762;BME280;12865;51.934;10.330;2024-01-11T04:22:12;100675.63;;;-8.98;100.00
24762;BME280;12865;51.934;10.330;2024-01-11T04:24:57;100687.75;;;-8.91;100.00
24762;BME280;12865;51.934;10.330;2024-01-11T04:27:43;100686.81;;;-8.96;100.00
24762;BME280;12865;51.934;10.330;2024-01-11T04:30:29;100691.91;;;-9.02;100.00
24762;BME280;12865;51.934;10.330;2024-01-11T04:33:14;100676.25;;;-9.16;100.00
24762;BME280;12865;51.934;10.330;2024-01-11T04:36:00;100667.63;;;-9.19;100.00
24762;BME280;12865;51.934;10.330;2024-01-11T04:38:46;100659.00;;;-9.20;100.00
24762;BME280;12865;51.934;10.330;2024-01-11T04:41:31;100646.06;;;-9.21;100.00
24762;BME280;12865;51.934;10.330;2024-01-11T04:44:17;100630.16;;;-8.78;100.00
24762;BME280;12865;51.934;10.330;2024-01-11T04:47:03;100606.44;;;-8.23;100.00
24762;BME280;12865;51.934;10.330;2024-01-11T04:49:48;100612.75;;;-7.80;100.00
24762;BME280;12865;51.934;10.330;2024-01-11T04:52:34;100597.28;;;-7.65;100.00
24762;BME280;12865;51.934;10.330;2024-01-11T04:55:20;100599.06;;;-7.52;100.00
24762;BME280;12865;51.934;10.330;2024-01-11T04:58:05;100581.81;;;-7.47;100.00
24762;BME280;12865;51.934;10.330;2024-01-11T05:00:51;100574.09;;;-7.30;100.00
24762;BME280;12865;51.934;10.330;2024-01-11T05:03:37;100567.19;;;-7.31;100.00
24762;BME280;12865;51.934;10.330;2024-01-11T05:06:22;100568.91;;;-7.27;100.00
24762;BME280;12865;51.934;10.330;2024-01-11T05:09:08;100572.41;;;-7.18;100.00
24762;BME280;12865;51.934;10.330;2024-01-11T05:11:54;100581.03;;;-7.11;100.00
24762;BME280;12865;51.934;10.330;2024-01-11T05:14:39;100586.22;;;-7.05;100.00
24762;BME280;12865;51.934;10.330;2024-01-11T05:17:26;100606.97;;;-6.87;100.00
24762;BME280;12865;51.934;10.330;2024-01-11T05:20:12;100618.19;;;-7.00;100.00
24762;BME280;12865;51.934;10.330;2024-01-11T05:22:57;100627.66;;;-7.14;100.00
24762;BME280;12865;51.934;10.330;2024-01-11T05:25:43;100640.59;;;-7.31;100.00
24762;BME280;12865;51.934;10.330;2024-01-11T05:28:29;100646.59;;;-7.36;100.00
24762;BME280;12865;51.934;10.330;2024-01-11T05:31:15;100650.03;;;-7.43;100.00
24762;BME280;12865;51.934;10.330;2024-01-11T05:34:01;100659.41;;;-7.67;100.00
24762;BME280;12865;51.934;10.330;2024-01-11T05:36:47;100661.06;;;-7.76;100.00
24762;BME280;12865;51.934;10.330;2024-01-11T05:39:33;100652.44;;;-7.75;100.00
24762;BME280;12865;51.934;10.330;2024-01-11T05:42:18;100654.25;;;-7.61;100.00
24762;BME280;12865;51.934;10.330;2024-01-11T05:45:05;100663.69;;;-7.73;100.00
24762;BME280;12865;51.934;10.330;2024-01-11T05:47:51;100661.91;;;-7.80;100.00
24762;BME280;12865;51.934;10.330;2024-01-11T05:50:37;100675.72;;;-7.81;100.00
24762;BME280;12865;51.934;10.330;2024-01-11T05:53:22;100671.38;;;-7.84;100.00
24762;BME280;12865;51.934;10.330;2024-01-11T05:56:08;100679.06;;;-7.95;100.00
24762;BME280;12865;51.934;10.330;2024-01-11T05:58:54;100675.66;;;-7.84;100.00
24762;BME280;12865;51.934;10.330;2024-01-11T06:01:41;100675.66;;;-7.84;100.00
24762;BME280;12865;51.934;10.330;2024-01-11T06:04:28;100682.69;;;-7.64;100.00
24762;BME280;12865;51.934;10.330;2024-01-11T06:07:13;100672.31;;;-7.74;100.00
24762;BME280;12865;51.934;10.330;2024-01-11T06:09:59;100662.69;;;-7.90;100.00
24762;BME280;12865;51.934;10.330;2024-01-11T06:12:48;100655.75;;;-7.98;100.00
24762;BME280;12865;51.934;10.330;2024-01-11T06:15:33;100647.09;;;-8.03;100.00
24762;BME280;12865;51.934;10.330;2024-01-11T06:20:47;100666.91;;;-8.08;100.00
24762;BME280;12865;51.934;10.330;2024-01-11T06:23:32;100662.59;;;-8.09;100.00
24762;BME280;12865;51.934;10.330;2024-01-11T06:26:18;100661.75;;;-8.08;100.00
24762;BME280;12865;51.934;10.330;2024-01-11T06:29:03;100651.38;;;-8.09;100.00
24762;BME280;12865;51.934;10.330;2024-01-11T06:31:49;100638.50;;;-7.99;100.00
24762;BME280;12865;51.934;10.330;2024-01-11T06:34:35;100625.63;;;-7.89;100.00
24762;BME280;12865;51.934;10.330;2024-01-11T06:37:21;100635.94;;;-7.94;100.00
24762;BME280;12865;51.934;10.330;2024-01-11T06:40:08;100631.66;;;-7.94;100.00
24762;BME280;12865;51.934;10.330;2024-01-11T06:42:54;100602.41;;;-7.74;100.00
24762;BME280;12865;51.934;10.330;2024-01-11T06:45:39;100599.06;;;-7.49;100.00
24762;BME280;12865;51.934;10.330;2024-01-11T06:48:25;100601.75;;;-7.19;100.00
24762;BME280;12865;51.934;10.330;2024-01-11T06:51:14;100599.22;;;-6.97;100.00
24762;BME280;12865;51.934;10.330;2024-01-11T06:54:00;100605.28;;;-6.82;100.00
24762;BME280;12865;51.934;10.330;2024-01-11T06:56:46;100611.34;;;-6.81;100.00
24762;BME280;12865;51.934;10.330;2024-01-11T06:59:32;100620.81;;;-6.94;100.00
24762;BME280;12865;51.934;10.330;2024-01-11T07:02:18;100620.78;;;-7.06;100.00
24762;BME280;12865;51.934;10.330;2024-01-11T07:05:03;100635.41;;;-7.22;100.00
24762;BME280;12865;51.934;10.330;2024-01-11T07:07:49;100645.78;;;-7.22;100.00
24762;BME280;12865;51.934;10.330;2024-01-11T07:10:35;100625.94;;;-7.18;100.00
24762;BME280;12865;51.934;10.330;2024-01-11T07:13:21;100631.97;;;-7.15;100.00
24762;BME280;12865;51.934;10.330;2024-01-11T07:16:06;100636.31;;;-7.14;100.00
24762;BME280;12865;51.934;10.330;2024-01-11T07:18:52;100638.91;;;-7.15;100.00
24762;BME280;12865;51.934;10.330;2024-01-11T07:21:37;100655.31;;;-7.16;100.00
24762;BME280;12865;51.934;10.330;2024-01-11T07:24:23;100664.00;;;-6.99;100.00
24762;BME280;12865;51.934;10.330;2024-01-11T07:27:09;100650.22;;;-6.83;100.00
24762;BME280;12865;51.934;10.330;2024-01-11T07:29:54;100646.69;;;-7.09;100.00
24762;BME280;12865;51.934;10.330;2024-01-11T07:32:40;100637.19;;;-7.16;100.00
24762;BME280;12865;51.934;10.330;2024-01-11T07:35:26;100630.22;;;-7.22;100.00
24762;BME280;12865;51.934;10.330;2024-01-11T07:38:11;100631.16;;;-7.04;100.00
24762;BME280;12865;51.934;10.330;2024-01-11T07:40:57;100619.91;;;-7.00;100.00
24762;BME280;12865;51.934;10.330;2024-01-11T07:43:43;100617.38;;;-6.70;100.00
24762;BME280;12865;51.934;10.330;2024-01-11T07:46:28;100618.25;;;-6.68;100.00
24762;BME280;12865;51.934;10.330;2024-01-11T07:49:14;100631.22;;;-6.60;100.00
24762;BME280;12865;51.934;10.330;2024-01-11T07:52:00;100644.19;;;-6.62;100.00
24762;BME280;12865;51.934;10.330;2024-01-11T07:54:46;100661.47;;;-6.58;100.00
24762;BME280;12865;51.934;10.330;2024-01-11T07:57:32;100677.03;;;-6.62;100.00
24762;BME280;12865;51.934;10.330;2024-01-11T08:00:18;100681.28;;;-6.92;100.00
24762;BME280;12865;51.934;10.330;2024-01-11T08:03:04;100689.03;;;-7.04;100.00
24762;BME280;12865;51.934;10.330;2024-01-11T08:05:50;100698.47;;;-7.20;100.00
24762;BME280;12865;51.934;10.330;2024-01-11T08:08:36;100710.53;;;-7.25;100.00
24762;BME280;12865;51.934;10.330;2024-01-11T08:11:24;100722.69;;;-7.16;100.00
24762;BME280;12865;51.934;10.330;2024-01-11T08:14:10;100725.22;;;-7.21;100.00
24762;BME280;12865;51.934;10.330;2024-01-11T08:16:55;100721.81;;;-7.15;100.00
24762;BME280;12865;51.934;10.330;2024-01-11T08:19:41;100733.09;;;-7.08;100.00
24762;BME280;12865;51.934;10.330;2024-01-11T08:22:29;100720.13;;;-7.08;100.00
24762;BME280;12865;51.934;10.330;2024-01-11T08:25:19;100714.97;;;-7.01;100.00
24762;BME280;12865;51.934;10.330;2024-01-11T08:28:05;100718.44;;;-6.94;100.00
24762;BME280;12865;51.934;10.330;2024-01-11T08:30:50;100702.91;;;-6.87;100.00
24762;BME280;12865;51.934;10.330;2024-01-11T08:33:36;100702.94;;;-6.70;100.00
24762;BME280;12865;51.934;10.330;2024-01-11T08:36:22;100706.41;;;-6.65;100.00
24762;BME280;12865;51.934;10.330;2024-01-11T08:39:08;100704.72;;;-6.60;100.00
24762;BME280;12865;51.934;10.330;2024-01-11T08:41:53;100696.91;;;-6.58;100.00
24762;BME280;12865;51.934;10.330;2024-01-11T08:44:42;100680.50;;;-6.54;100.00
24762;BME280;12865;51.934;10.330;2024-01-11T08:47:28;100676.19;;;-6.51;100.00
24762;BME280;12865;51.934;10.330;2024-01-11T08:50:14;100675.31;;;-6.50;100.00
24762;BME280;12865;51.934;10.330;2024-01-11T08:53:00;100677.06;;;-6.35;100.00
24762;BME280;12865;51.934;10.330;2024-01-11T08:55:46;100675.34;;;-6.25;100.00
24762;BME280;12865;51.934;10.330;2024-01-11T08:58:31;100672.75;;;-6.27;100.00
24762;BME280;12865;51.934;10.330;2024-01-11T09:01:17;100671.88;;;-6.15;100.00
24762;BME280;12865;51.934;10.330;2024-01-11T09:19:10;100693.19;;;-4.95;100.00
24762;BME280;12865;51.934;10.330;2024-01-11T09:21:56;100685.34;;;-4.87;100.00
24762;BME280;12865;51.934;10.330;2024-01-11T09:24:41;100687.91;;;-4.77;100.00
24762;BME280;12865;51.934;10.330;2024-01-11T09:27:27;100693.81;;;-4.49;100.00
24762;BME280;12865;51.934;10.330;2024-01-11T09:32:40;100683.34;;;-4.43;100.00
24762;BME280;12865;51.934;10.330;2024-01-11T09:35:26;100671.91;;;-4.23;100.00
24762;BME280;12865;51.934;10.330;2024-01-11T09:38:12;100679.81;;;-4.37;100.00
24762;BME280;12865;51.934;10.330;2024-01-11T09:41:07;100677.06;;;-4.20;100.00
24762;BME280;12865;51.934;10.330;2024-01-11T09:43:54;100696.91;;;-4.06;99.71
24762;BME280;12865;51.934;10.330;2024-01-11T09:46:43;100694.34;;;-4.07;100.00
24762;BME280;12865;51.934;10.330;2024-01-11T09:49:30;100683.81;;;-3.95;100.00
24762;BME280;12865;51.934;10.330;2024-01-11T09:52:19;100689.78;;;-3.81;100.00
24762;BME280;12865;51.934;10.330;2024-01-11T09:55:06;100690.41;;;-3.58;100.00
24762;BME280;12865;51.934;10.330;2024-01-11T09:57:56;100689.44;;;-3.47;96.70
24762;BME280;12865;51.934;10.330;2024-01-11T10:00:43;100683.97;;;-3.23;97.07
24762;BME280;12865;51.934;10.330;2024-01-11T10:03:29;100695.97;;;-3.11;94.98
24762;BME280;12865;51.934;10.330;2024-01-11T10:06:17;100689.72;;;-2.97;92.92
24762;BME280;12865;51.934;10.330;2024-01-11T10:09:03;100689.72;;;-2.97;93.20
24762;BME280;12865;51.934;10.330;2024-01-11T10:11:49;100686.16;;;-2.91;91.51
24762;BME280;12865;51.934;10.330;2024-01-11T10:14:36;100676.38;;;-2.74;92.20
24762;BME280;12865;51.934;10.330;2024-01-11T10:17:22;100670.94;;;-2.60;92.06
24762;BME280;12865;51.934;10.330;2024-01-11T10:20:07;100666.63;;;-2.61;89.76
24762;BME280;12865;51.934;10.330;2024-01-11T10:22:56;100653.44;;;-2.54;89.47
24762;BME280;12865;51.934;10.330;2024-01-11T10:25:42;100650.00;;;-2.56;89.82
24762;BME280;12865;51.934;10.330;2024-01-11T10:28:28;100649.91;;;-2.50;90.33
24762;BME280;12865;51.934;10.330;2024-01-11T10:31:14;100644.56;;;-2.44;91.44
24762;BME280;12865;51.934;10.330;2024-01-11T10:34:04;100648.81;;;-2.37;91.99
24762;BME280;12865;51.934;10.330;2024-01-11T10:36:52;100636.41;;;-2.24;92.55
24762;BME280;12865;51.934;10.330;2024-01-11T10:39:38;100621.44;;;-2.13;85.53
24762;BME280;12865;51.934;10.330;2024-01-11T10:42:27;100610.69;;;-1.96;84.82
24762;BME280;12865;51.934;10.330;2024-01-11T10:45:17;100608.03;;;-1.94;82.56
24762;BME280;12865;51.934;10.330;2024-01-11T10:48:06;100615.00;;;-1.93;80.93
24762;BME280;12865;51.934;10.330;2024-01-11T10:50:54;100620.34;;;-2.01;82.03
24762;BME280;12865;51.934;10.330;2024-01-11T10:53:47;100626.53;;;-2.05;82.03
24762;BME280;12865;51.934;10.330;2024-01-11T10:56:33;100630.69;;;-1.95;80.95
24762;BME280;12865;51.934;10.330;2024-01-11T10:59:21;100626.75;;;-2.17;82.62
24762;BME280;12865;51.934;10.330;2024-01-11T11:02:12;100652.94;;;-2.23;82.24
24762;BME280;12865;51.934;10.330;2024-01-11T11:05:00;100642.56;;;-2.25;80.65
24762;BME280;12865;51.934;10.330;2024-01-11T11:07:49;100661.44;;;-2.66;82.23
24762;BME280;12865;51.934;10.330;2024-01-11T11:10:36;100666.53;;;-2.55;83.68
24762;BME280;12865;51.934;10.330;2024-01-11T11:13:22;100664.91;;;-2.64;83.80
24762;BME280;12865;51.934;10.330;2024-01-11T11:16:07;100683.03;;;-2.55;83.40
24762;BME280;12865;51.934;10.330;2024-01-11T11:18:54;100681.41;;;-2.62;82.06
24762;BME280;12865;51.934;10.330;2024-01-11T11:21:47;100698.81;;;-2.61;83.11
24762;BME280;12865;51.934;10.330;2024-01-11T11:24:34;100700.47;;;-2.57;79.73
24762;BME280;12865;51.934;10.330;2024-01-11T11:27:20;100693.41;;;-2.49;81.45
24762;BME280;12865;51.934;10.330;2024-01-11T11:30:06;100693.41;;;-2.49;84.47
24762;BME280;12865;51.934;10.330;2024-01-11T11:32:54;100698.44;;;-2.37;85.01
24762;BME280;12865;51.934;10.330;2024-01-11T11:35:40;100697.13;;;-2.08;85.27
24762;BME280;12865;51.934;10.330;2024-01-11T11:38:28;100688.63;;;-2.21;86.64
24762;BME280;12865;51.934;10.330;2024-01-11T11:41:16;100691.91;;;-2.10;85.62
24762;BME280;12865;51.934;10.330;2024-01-11T11:44:02;100688.41;;;-2.07;83.79
24762;BME280;12865;51.934;10.330;2024-01-11T11:46:49;100698.31;;;-2.27;86.45
24762;BME280;12865;51.934;10.330;2024-01-11T11:52:56;100683.59;;;-2.33;86.61
24762;BME280;12865;51.934;10.330;2024-01-11T11:55:42;100677.63;;;-2.41;87.61
24762;BME280;12865;51.934;10.330;2024-01-11T11:58:29;100663.06;;;-2.59;90.65
24762;BME280;12865;51.934;10.330;2024-01-11T12:01:15;100663.91;;;-2.55;92.88
24762;BME280;12865;51.934;10.330;2024-01-11T12:04:08;100662.06;;;-2.49;95.33
24762;BME280;12865;51.934;10.330;2024-01-11T12:06:53;100642.13;;;-2.53;99.05
24762;BME280;12865;51.934;10.330;2024-01-11T12:09:39;100631.50;;;-2.44;100.00
24762;BME280;12865;51.934;10.330;2024-01-11T12:12:25;100613.09;;;-2.34;100.00
24762;BME280;12865;51.934;10.330;2024-01-11T12:15:10;100609.63;;;-2.35;100.00
24762;BME280;12865;51.934;10.330;2024-01-11T12:17:59;100596.47;;;-2.30;100.00
24762;BME280;12865;51.934;10.330;2024-01-11T12:20:45;100596.25;;;-2.17;100.00
24762;BME280;12865;51.934;10.330;2024-01-11T12:23:32;100599.59;;;-2.10;100.00
24762;BME280;12865;51.934;10.330;2024-01-11T12:26:20;100594.97;;;-1.94;100.00
24762;BME280;12865;51.934;10.330;2024-01-11T12:29:07;100592.19;;;-1.84;100.00
24762;BME280;12865;51.934;10.330;2024-01-11T12:31:56;100603.75;;;-1.97;100.00
24762;BME280;12865;51.934;10.330;2024-01-11T12:34:43;100602.41;;;-1.72;100.00
24762;BME280;12865;51.934;10.330;2024-01-11T12:37:30;100588.81;;;-1.90;100.00
24762;BME280;12865;51.934;10.330;2024-01-11T12:40:16;100592.56;;;-2.04;100.00
24762;BME280;12865;51.934;10.330;2024-01-11T12:43:01;100598.59;;;-2.03;100.00
24762;BME280;12865;51.934;10.330;2024-01-11T12:45:47;100590.81;;;-2.05;100.00
24762;BME280;12865;51.934;10.330;2024-01-11T12:48:33;100595.06;;;-1.99;100.00
24762;BME280;12865;51.934;10.330;2024-01-11T12:51:19;100603.63;;;-1.91;100.00
24762;BME280;12865;51.934;10.330;2024-01-11T12:54:10;100607.31;;;-2.03;100.00
24762;BME280;12865;51.934;10.330;2024-01-11T12:56:56;100618.44;;;-1.91;100.00
24762;BME280;12865;51.934;10.330;2024-01-11T12:59:42;100625.28;;;-1.83;100.00
24762;BME280;12865;51.934;10.330;2024-01-11T13:02:30;100629.91;;;-2.00;100.00
24762;BME280;12865;51.934;10.330;2024-01-11T13:05:16;100636.78;;;-1.94;100.00
24762;BME280;12865;51.934;10.330;2024-01-11T13:08:02;100630.06;;;-2.08;100.00
24762;BME280;12865;51.934;10.330;2024-01-11T13:10:49;100628.41;;;-2.13;100.00
24762;BME280;12865;51.934;10.330;2024-01-11T13:13:35;100630.16;;;-2.12;100.00
24762;BME280;12865;51.934;10.330;2024-01-11T13:16:21;100622.28;;;-2.11;100.00
24762;BME280;12865;51.934;10.330;2024-01-11T13:19:07;100613.53;;;-2.10;100.00
24762;BME280;12865;51.934;10.330;2024-01-11T13:21:53;100612.63;;;-2.07;100.00
24762;BME280;12865;51.934;10.330;2024-01-11T13:24:38;100611.66;;;-2.03;100.00
24762;BME280;12865;51.934;10.330;2024-01-11T13:27:24;100609.03;;;-2.02;100.00
24762;BME280;12865;51.934;10.330;2024-01-11T13:30:10;100611.63;;;-2.00;100.00
24762;BME280;12865;51.934;10.330;2024-01-11T13:32:55;100612.47;;;-1.98;100.00
24762;BME280;12865;51.934;10.330;2024-01-11T13:35:41;100613.34;;;-1.99;100.00
24762;BME280;12865;51.934;10.330;2024-01-11T13:38:30;100609.78;;;-1.95;100.00
24762;BME280;12865;51.934;10.330;2024-01-11T13:41:16;100602.75;;;-1.90;100.00
24762;BME280;12865;51.934;10.330;2024-01-11T13:44:02;100594.78;;;-1.84;100.00
24762;BME280;12865;51.934;10.330;2024-01-11T13:46:51;100593.78;;;-1.75;100.00
24762;BME280;12865;51.934;10.330;2024-01-11T13:49:36;100590.22;;;-1.73;100.00
24762;BME280;12865;51.934;10.330;2024-01-11T13:52:22;100580.59;;;-1.71;100.00
24762;BME280;12865;51.934;10.330;2024-01-11T13:55:08;100597.94;;;-1.67;100.00
24762;BME280;12865;51.934;10.330;2024-01-11T13:57:55;100603.97;;;-1.63;100.00
24762;BME280;12865;51.934;10.330;2024-01-11T14:00:41;100608.25;;;-1.59;100.00
24762;BME280;12865;51.934;10.330;2024-01-11T14:03:27;100611.69;;;-1.57;100.00
24762;BME280;12865;51.934;10.330;2024-01-11T14:06:13;100604.63;;;-1.53;100.00
24762;BME280;12865;51.934;10.330;2024-01-11T14:08:58;100607.16;;;-1.47;100.00
24762;BME280;12865;51.934;10.330;2024-01-11T14:11:44;100614.94;;;-1.44;100.00
24762;BME280;12865;51.934;10.330;2024-01-11T14:14:30;100616.63;;;-1.42;100.00
24762;BME280;12865;51.934;10.330;2024-01-11T14:17:15;100623.53;;;-1.39;100.00
24762;BME280;12865;51.934;10.330;2024-01-11T14:20:01;100618.28;;;-1.38;100.00
24762;BME280;12865;51.934;10.330;2024-01-11T14:22:49;100602.31;;;-1.26;100.00
24762;BME280;12865;51.934;10.330;2024-01-11T14:25:35;100617.25;;;-1.29;100.00
24762;BME280;12865;51.934;10.330;2024-01-11T14:28:20;100626.84;;;-1.30;100.00
24762;BME280;12865;51.934;10.330;2024-01-11T14:31:06;100619.84;;;-1.28;100.00